sensor_id;sensor_type;location;lat;lon;timestamp;pressure;altitude;pressure_sealevel;temperature;humidity
76732;BME280;65656;51.130;13.658;2023-07-13T00:01:19;98960.88;;;19.21;58.60
76732;BME280;65656;51.130;13.658;2023-07-13T00:05:21;98955.69;;;19.28;59.81
76732;BME280;65656;51.130;13.658;2023-07-13T00:09:25;98955.47;;;19.16;59.45
76732;BME280;65656;51.130;13.658;2023-07-13T00:13:26;98953.59;;;19.03;60.11
76732;BME280;65656;51.130;13.658;2023-07-13T00:17:28;98954.78;;;18.88;61.34
76732;BME280;65656;51.130;13.658;2023-07-13T00:21:30;98966.72;;;18.88;61.71
76732;BME280;65656;51.130;13.658;2023-07-13T00:25:33;98970.72;;;19.05;62.65
76732;BME280;65656;51.130;13.658;2023-07-13T00:29:34;98983.47;;;19.28;61.38
76732;BME280;65656;51.130;13.658;2023-07-13T00:33:36;98980.31;;;19.21;62.23
76732;BME280;65656;51.130;13.658;2023-07-13T00:37:37;98984.47;;;19.32;62.25
76732;BME280;65656;51.130;13.658;2023-07-13T00:41:40;98994.06;;;19.26;63.10
76732;BME280;65656;51.130;13.658;2023-07-13T00:46:12;99039.91;;;19.15;63.95
76732;BME280;65656;51.130;13.658;2023-07-13T00:50:16;99051.75;;;19.29;61.35
76732;BME280;65656;51.130;13.658;2023-07-13T00:54:19;99032.69;;;19.14;65.71
76732;BME280;65656;51.130;13.658;2023-07-13T00:58:23;99026.63;;;18.89;73.45
76732;BME280;65656;51.130;13.658;2023-07-13T01:02:25;99032.25;;;18.76;72.50
76732;BME280;65656;51.130;13.658;2023-07-13T01:06:27;99016.47;;;18.49;76.29
76732;BME280;65656;51.130;13.658;2023-07-13T01:10:29;98999.91;;;18.21;75.32
76732;BME280;65656;51.130;13.658;2023-07-13T01:14:32;98983.88;;;18.04;77.57
76732;BME280;65656;51.130;13.658;2023-07-13T01:18:34;98983.09;;;17.90;78.79
76732;BME280;65656;51.130;13.658;2023-07-13T01:22:36;98982.97;;;17.95;78.12
76732;BME280;65656;51.130;13.658;2023-07-13T01:26:38;98990.88;;;17.88;80.19
76732;BME280;65656;51.130;13.658;2023-07-13T01:30:40;98991.28;;;17.81;80.58
76732;BME280;65656;51.130;13.658;2023-07-13T01:34:41;98995.41;;;17.70;83.42
76732;BME280;65656;51.130;13.658;2023-07-13T01:38:44;99004.81;;;17.69;81.82
76732;BME280;65656;51.130;13.658;2023-07-13T01:42:46;98992.91;;;17.69;82.43
76732;BME280;65656;51.130;13.658;2023-07-13T01:46:48;98990.31;;;17.59;81.17
76732;BME280;65656;51.130;13.658;2023-07-13T01:50:49;98984.09;;;17.53;83.32
76732;BME280;65656;51.130;13.658;2023-07-13T01:54:52;98986.94;;;17.48;80.66
76732;BME280;65656;51.130;13.658;2023-07-13T01:58:53;98986.13;;;17.47;80.66
76732;BME280;65656;51.130;13.658;2023-07-13T02:02:55;98985.72;;;17.54;79.56
76732;BME280;65656;51.130;13.658;2023-07-13T02:06:57;98990.34;;;17.45;80.31
76732;BME280;65656;51.130;13.658;2023-07-13T02:11:00;98992.56;;;17.43;81.71
76732;BME280;65656;51.130;13.658;2023-07-13T02:15:02;98990.63;;;17.30;82.82
76732;BME280;65656;51.130;13.658;2023-07-13T02:19:04;98979.47;;;17.02;85.50
76732;BME280;65656;51.130;13.658;2023-07-13T02:23:05;99001.16;;;16.95;85.50
76732;BME280;65656;51.130;13.658;2023-07-13T02:27:11;99001.59;;;17.02;83.98
76732;BME280;65656;51.130;13.658;2023-07-13T02:31:15;98996.19;;;16.97;85.69
76732;BME280;65656;51.130;13.658;2023-07-13T02:35:17;98998.31;;;17.00;84.32
76732;BME280;65656;51.130;13.658;2023-07-13T02:39:18;98993.81;;;17.04;84.40
76732;BME280;65656;51.130;13.658;2023-07-13T02:43:21;98991.22;;;16.94;84.60
76732;BME280;65656;51.130;13.658;2023-07-13T02:47:23;99008.50;;;16.86;85.60
76732;BME280;65656;51.130;13.658;2023-07-13T02:51:25;99007.56;;;16.77;87.77
76732;BME280;65656;51.130;13.658;2023-07-13T02:55:26;99002.09;;;16.71;88.18
76732;BME280;65656;51.130;13.658;2023-07-13T02:59:29;99007.97;;;16.65;88.94
76732;BME280;65656;51.130;13.658;2023-07-13T03:03:31;99008.97;;;16.55;88.67
76732;BME280;65656;51.130;13.658;2023-07-13T03:07:32;99010.97;;;16.50;88.41
76732;BME280;65656;51.130;13.658;2023-07-13T03:11:33;99014.41;;;16.41;89.24
76732;BME280;65656;51.130;13.658;2023-07-13T03:15:36;99031.00;;;16.41;89.33
76732;BME280;65656;51.130;13.658;2023-07-13T03:19:38;99018.09;;;16.37;89.48
76732;BME280;65656;51.130;13.658;2023-07-13T03:23:39;99019.63;;;16.24;91.05
76732;BME280;65656;51.130;13.658;2023-07-13T03:27:41;99020.00;;;16.17;91.95
76732;BME280;65656;51.130;13.658;2023-07-13T03:31:44;99019.78;;;16.14;92.58
76732;BME280;65656;51.130;13.658;2023-07-13T03:35:45;99032.00;;;16.08;93.49
76732;BME280;65656;51.130;13.658;2023-07-13T03:39:47;99031.78;;;16.04;95.21
76732;BME280;65656;51.130;13.658;2023-07-13T03:43:49;99030.16;;;16.03;94.67
76732;BME280;65656;51.130;13.658;2023-07-13T03:47:52;99044.84;;;15.99;94.96
76732;BME280;65656;51.130;13.658;2023-07-13T03:51:53;99043.75;;;15.95;95.06
76732;BME280;65656;51.130;13.658;2023-07-13T03:55:55;99046.47;;;16.00;94.86
76732;BME280;65656;51.130;13.658;2023-07-13T03:59:56;99057.19;;;16.06;94.45
76732;BME280;65656;51.130;13.658;2023-07-13T04:03:59;99058.31;;;16.05;94.22
76732;BME280;65656;51.130;13.658;2023-07-13T04:08:04;99064.34;;;16.07;94.12
76732;BME280;65656;51.130;13.658;2023-07-13T04:12:06;99065.28;;;16.22;93.20
76732;BME280;65656;51.130;13.658;2023-07-13T04:16:08;99072.19;;;16.43;92.51
76732;BME280;65656;51.130;13.658;2023-07-13T04:20:11;99070.13;;;16.73;91.57
76732;BME280;65656;51.130;13.658;2023-07-13T04:24:13;99070.44;;;16.90;90.32
76732;BME280;65656;51.130;13.658;2023-07-13T04:28:15;99067.88;;;17.12;88.61
76732;BME280;65656;51.130;13.658;2023-07-13T04:32:16;99066.81;;;17.08;88.70
76732;BME280;65656;51.130;13.658;2023-07-13T04:36:19;99074.09;;;16.85;90.20
76732;BME280;65656;51.130;13.658;2023-07-13T04:40:21;99076.72;;;16.77;91.02
76732;BME280;65656;51.130;13.658;2023-07-13T04:44:22;99086.81;;;16.86;90.41
76732;BME280;65656;51.130;13.658;2023-07-13T04:48:24;99084.63;;;17.02;89.25
76732;BME280;65656;51.130;13.658;2023-07-13T04:52:27;99075.56;;;17.15;89.73
76732;BME280;65656;51.130;13.658;2023-07-13T04:56:29;99078.41;;;17.29;88.23
76732;BME280;65656;51.130;13.658;2023-07-13T05:00:31;99078.41;;;17.43;85.20
76732;BME280;65656;51.130;13.658;2023-07-13T05:04:32;99084.66;;;17.67;83.18
76732;BME280;65656;51.130;13.658;2023-07-13T05:08:35;99079.88;;;17.87;83.49
76732;BME280;65656;51.130;13.658;2023-07-13T05:12:37;99079.16;;;17.95;81.23
76732;BME280;65656;51.130;13.658;2023-07-13T05:16:38;99085.63;;;18.04;81.48
76732;BME280;65656;51.130;13.658;2023-07-13T05:20:40;99085.31;;;18.19;81.19
76732;BME280;65656;51.130;13.658;2023-07-13T05:24:42;99084.19;;;18.34;80.07
76732;BME280;65656;51.130;13.658;2023-07-13T05:28:44;99083.28;;;18.38;79.48
76732;BME280;65656;51.130;13.658;2023-07-13T05:32:45;99091.78;;;18.28;79.39
76732;BME280;65656;51.130;13.658;2023-07-13T05:36:47;99089.84;;;18.43;79.81
76732;BME280;65656;51.130;13.658;2023-07-13T05:40:50;99095.69;;;18.69;78.91
76732;BME280;65656;51.130;13.658;2023-07-13T05:44:52;99099.91;;;18.66;77.94
76732;BME280;65656;51.130;13.658;2023-07-13T05:48:54;99102.97;;;18.64;78.68
76732;BME280;65656;51.130;13.658;2023-07-13T05:52:55;99097.22;;;18.61;78.56
76732;BME280;65656;51.130;13.658;2023-07-13T05:56:58;99097.22;;;18.61;76.81
76732;BME280;65656;51.130;13.658;2023-07-13T06:01:01;99092.81;;;18.60;75.84
76732;BME280;65656;51.130;13.658;2023-07-13T06:05:04;99105.66;;;18.83;76.21
76732;BME280;65656;51.130;13.658;2023-07-13T06:09:05;99103.75;;;18.92;76.98
76732;BME280;65656;51.130;13.658;2023-07-13T06:13:08;99109.25;;;19.06;73.08
76732;BME280;65656;51.130;13.658;2023-07-13T06:17:10;99118.03;;;19.22;72.00
76732;BME280;65656;51.130;13.658;2023-07-13T06:21:13;99120.38;;;19.51;71.38
76732;BME280;65656;51.130;13.658;2023-07-13T06:25:16;99115.66;;;19.74;71.35
76732;BME280;65656;51.130;13.658;2023-07-13T06:29:19;99116.22;;;20.16;69.15
76732;BME280;65656;51.130;13.658;2023-07-13T06:33:21;99109.28;;;20.44;68.61
76732;BME280;65656;51.130;13.658;2023-07-13T06:37:22;99109.44;;;20.39;67.06
76732;BME280;65656;51.130;13.658;2023-07-13T06:41:24;99110.50;;;20.21;65.62
76732;BME280;65656;51.130;13.658;2023-07-13T06:45:27;99119.50;;;20.57;65.16
76732;BME280;65656;51.130;13.658;2023-07-13T06:49:29;99124.59;;;20.64;64.07
76732;BME280;65656;51.130;13.658;2023-07-13T06:53:30;99131.47;;;20.75;64.60
76732;BME280;65656;51.130;13.658;2023-07-13T06:57:32;99140.19;;;21.08;61.63
76732;BME280;65656;51.130;13.658;2023-07-13T07:01:34;99141.88;;;21.09;62.85
76732;BME280;65656;51.130;13.658;2023-07-13T07:05:36;99149.09;;;21.28;62.22
76732;BME280;65656;51.130;13.658;2023-07-13T07:09:37;99145.00;;;21.25;59.05
76732;BME280;65656;51.130;13.658;2023-07-13T07:13:39;99145.00;;;21.25;62.69
76732;BME280;65656;51.130;13.658;2023-07-13T07:17:42;99153.00;;;21.09;61.69
76732;BME280;65656;51.130;13.658;2023-07-13T07:21:43;99161.06;;;21.28;62.35
76732;BME280;65656;51.130;13.658;2023-07-13T07:25:45;99154.53;;;21.33;62.12
76732;BME280;65656;51.130;13.658;2023-07-13T07:29:47;99153.69;;;21.58;61.49
76732;BME280;65656;51.130;13.658;2023-07-13T07:34:10;99162.19;;;21.62;60.68
76732;BME280;65656;51.130;13.658;2023-07-13T07:38:11;99158.53;;;22.13;58.22
76732;BME280;65656;51.130;13.658;2023-07-13T07:42:13;99157.44;;;21.80;57.94
76732;BME280;65656;51.130;13.658;2023-07-13T07:46:14;99167.59;;;21.76;55.51
76732;BME280;65656;51.130;13.658;2023-07-13T07:50:18;99156.59;;;21.70;58.89
76732;BME280;65656;51.130;13.658;2023-07-13T07:54:19;99156.44;;;21.84;55.55
76732;BME280;65656;51.130;13.658;2023-07-13T07:58:41;99154.53;;;21.50;56.21
76732;BME280;65656;51.130;13.658;2023-07-13T08:02:45;99153.72;;;21.41;55.64
76732;BME280;65656;51.130;13.658;2023-07-13T08:06:51;99160.91;;;21.42;54.25
76732;BME280;65656;51.130;13.658;2023-07-13T08:10:53;99156.50;;;21.50;57.59
76732;BME280;65656;51.130;13.658;2023-07-13T08:15:00;99162.19;;;21.70;57.29
76732;BME280;65656;51.130;13.658;2023-07-13T08:19:01;99165.19;;;21.48;53.52
76732;BME280;65656;51.130;13.658;2023-07-13T08:23:04;99166.59;;;21.89;54.68
76732;BME280;65656;51.130;13.658;2023-07-13T08:27:06;99169.50;;;22.27;54.00
76732;BME280;65656;51.130;13.658;2023-07-13T08:31:07;99167.16;;;22.67;49.81
76732;BME280;65656;51.130;13.658;2023-07-13T08:35:09;99170.03;;;22.79;50.52
76732;BME280;65656;51.130;13.658;2023-07-13T08:39:12;99174.06;;;22.32;50.53
76732;BME280;65656;51.130;13.658;2023-07-13T08:43:16;99166.19;;;22.63;49.60
76732;BME280;65656;51.130;13.658;2023-07-13T08:47:21;99166.06;;;22.60;50.00
76732;BME280;65656;51.130;13.658;2023-07-13T08:51:31;99163.50;;;22.75;49.45
76732;BME280;65656;51.130;13.658;2023-07-13T08:55:36;99170.94;;;22.24;49.04
76732;BME280;65656;51.130;13.658;2023-07-13T08:59:38;99172.00;;;22.11;49.32
76732;BME280;65656;51.130;13.658;2023-07-13T09:03:42;99176.81;;;22.40;50.79
76732;BME280;65656;51.130;13.658;2023-07-13T09:07:58;99175.09;;;22.95;49.91
76732;BME280;65656;51.130;13.658;2023-07-13T09:12:09;99170.03;;;22.79;48.34
76732;BME280;65656;51.130;13.658;2023-07-13T09:16:14;99179.59;;;22.78;48.71
76732;BME280;65656;51.130;13.658;2023-07-13T09:20:22;99173.78;;;22.54;47.94
76732;BME280;65656;51.130;13.658;2023-07-13T09:24:36;99188.91;;;22.53;49.80
76732;BME280;65656;51.130;13.658;2023-07-13T09:28:41;99189.69;;;22.15;49.62
76732;BME280;65656;51.130;13.658;2023-07-13T09:32:48;99197.59;;;22.13;50.31
76732;BME280;65656;51.130;13.658;2023-07-13T09:36:51;99199.41;;;22.56;49.37
76732;BME280;65656;51.130;13.658;2023-07-13T09:41:00;99198.19;;;22.74;47.94
76732;BME280;65656;51.130;13.658;2023-07-13T09:45:06;99193.38;;;22.84;47.61
76732;BME280;65656;51.130;13.658;2023-07-13T09:49:09;99203.69;;;23.21;47.08
76732;BME280;65656;51.130;13.658;2023-07-13T09:53:13;99200.09;;;23.62;45.68
76732;BME280;65656;51.130;13.658;2023-07-13T09:57:16;99206.25;;;23.77;45.45
76732;BME280;65656;51.130;13.658;2023-07-13T10:01:31;99209.75;;;24.19;45.64
76732;BME280;65656;51.130;13.658;2023-07-13T10:05:40;99197.28;;;24.74;43.71
76732;BME280;65656;51.130;13.658;2023-07-13T10:09:42;99198.69;;;24.68;40.79
76732;BME280;65656;51.130;13.658;2023-07-13T10:13:46;99198.63;;;24.43;42.50
76732;BME280;65656;51.130;13.658;2023-07-13T10:17:50;99198.38;;;25.06;41.55
76732;BME280;65656;51.130;13.658;2023-07-13T10:21:54;99202.66;;;24.91;40.98
76732;BME280;65656;51.130;13.658;2023-07-13T10:25:56;99204.72;;;24.58;42.62
76732;BME280;65656;51.130;13.658;2023-07-13T10:30:09;99204.88;;;25.10;40.43
76732;BME280;65656;51.130;13.658;2023-07-13T10:34:18;99207.91;;;24.81;40.83
76732;BME280;65656;51.130;13.658;2023-07-13T10:38:22;99202.91;;;24.98;39.89
76732;BME280;65656;51.130;13.658;2023-07-13T10:42:38;99191.59;;;25.07;40.72
76732;BME280;65656;51.130;13.658;2023-07-13T10:46:41;99187.63;;;25.48;38.63
76732;BME280;65656;51.130;13.658;2023-07-13T10:50:46;99204.28;;;24.56;39.59
76732;BME280;65656;51.130;13.658;2023-07-13T10:54:50;99187.22;;;24.36;41.81
76732;BME280;65656;51.130;13.658;2023-07-13T10:59:02;99208.78;;;24.03;41.97
76732;BME280;65656;51.130;13.658;2023-07-13T11:03:13;99205.72;;;23.96;41.85
76732;BME280;65656;51.130;13.658;2023-07-13T11:07:21;99205.31;;;24.06;39.68
76732;BME280;65656;51.130;13.658;2023-07-13T11:11:36;99201.50;;;24.68;39.76
76732;BME280;65656;51.130;13.658;2023-07-13T11:15:45;99197.38;;;25.02;40.52
76732;BME280;65656;51.130;13.658;2023-07-13T11:19:51;99192.06;;;25.62;40.81
76732;BME280;65656;51.130;13.658;2023-07-13T11:24:02;99199.59;;;25.45;40.46
76732;BME280;65656;51.130;13.658;2023-07-13T11:28:07;99196.13;;;24.75;42.28
76732;BME280;65656;51.130;13.658;2023-07-13T11:32:23;99198.31;;;25.31;40.45
76732;BME280;65656;51.130;13.658;2023-07-13T11:36:30;99204.53;;;25.12;40.91
76732;BME280;65656;51.130;13.658;2023-07-13T11:40:34;99205.56;;;25.32;40.12
76732;BME280;65656;51.130;13.658;2023-07-13T11:44:42;99193.31;;;25.24;38.69
76732;BME280;65656;51.130;13.658;2023-07-13T11:49:04;99199.88;;;25.16;39.95
76732;BME280;65656;51.130;13.658;2023-07-13T11:53:09;99199.13;;;24.82;39.29
76732;BME280;65656;51.130;13.658;2023-07-13T11:57:21;99194.94;;;25.00;39.52
76732;BME280;65656;51.130;13.658;2023-07-13T12:01:28;99189.56;;;25.32;38.86
76732;BME280;65656;51.130;13.658;2023-07-13T12:05:31;99184.84;;;25.36;37.95
76732;BME280;65656;51.130;13.658;2023-07-13T12:09:33;99176.09;;;26.22;37.96
76732;BME280;65656;51.130;13.658;2023-07-13T12:13:37;99173.91;;;25.99;37.50
76732;BME280;65656;51.130;13.658;2023-07-13T12:17:40;99164.38;;;25.88;36.05
76732;BME280;65656;51.130;13.658;2023-07-13T12:21:43;99175.06;;;26.74;35.72
76732;BME280;65656;51.130;13.658;2023-07-13T12:25:45;99178.47;;;26.20;34.75
76732;BME280;65656;51.130;13.658;2023-07-13T12:29:52;99177.63;;;26.79;33.26
76732;BME280;65656;51.130;13.658;2023-07-13T12:33:59;99170.63;;;27.24;30.98
76732;BME280;65656;51.130;13.658;2023-07-13T12:38:01;99168.44;;;26.82;32.27
76732;BME280;65656;51.130;13.658;2023-07-13T12:42:19;99170.41;;;27.48;31.86
76732;BME280;65656;51.130;13.658;2023-07-13T12:46:24;99163.88;;;27.44;31.80
76732;BME280;65656;51.130;13.658;2023-07-13T12:50:30;99162.25;;;27.43;31.74
76732;BME280;65656;51.130;13.658;2023-07-13T12:54:39;99171.31;;;26.22;33.14
76732;BME280;65656;51.130;13.658;2023-07-13T12:58:45;99168.72;;;27.82;31.67
76732;BME280;65656;51.130;13.658;2023-07-13T13:02:50;99167.50;;;28.45;31.09
76732;BME280;65656;51.130;13.658;2023-07-13T13:07:05;99160.03;;;29.32;28.51
76732;BME280;65656;51.130;13.658;2023-07-13T13:11:09;99179.94;;;29.12;28.50
76732;BME280;65656;51.130;13.658;2023-07-13T13:15:11;99168.03;;;27.89;28.62
76732;BME280;65656;51.130;13.658;2023-07-13T13:19:15;99148.44;;;31.44;27.45
76732;BME280;65656;51.130;13.658;2023-07-13T13:23:19;99158.47;;;28.81;28.93
76732;BME280;65656;51.130;13.658;2023-07-13T13:27:22;99171.53;;;27.08;32.06
76732;BME280;65656;51.130;13.658;2023-07-13T13:31:24;99175.41;;;26.25;34.20
76732;BME280;65656;51.130;13.658;2023-07-13T13:35:27;99168.81;;;30.17;28.45
76732;BME280;65656;51.130;13.658;2023-07-13T13:39:32;99177.34;;;30.24;27.97
76732;BME280;65656;51.130;13.658;2023-07-13T13:43:35;99164.78;;;30.62;27.61
76732;BME280;65656;51.130;13.658;2023-07-13T13:47:36;99168.56;;;29.09;29.08
76732;BME280;65656;51.130;13.658;2023-07-13T13:51:39;99172.34;;;30.47;26.86
76732;BME280;65656;51.130;13.658;2023-07-13T13:55:41;99172.28;;;29.13;29.54
76732;BME280;65656;51.130;13.658;2023-07-13T13:59:42;99164.25;;;31.59;25.32
76732;BME280;65656;51.130;13.658;2023-07-13T14:03:44;99167.66;;;31.14;26.60
76732;BME280;65656;51.130;13.658;2023-07-13T14:07:47;99168.13;;;28.35;30.13
76732;BME280;65656;51.130;13.658;2023-07-13T14:11:50;99184.06;;;26.63;33.18
76732;BME280;65656;51.130;13.658;2023-07-13T14:15:53;99187.03;;;25.55;34.49
76732;BME280;65656;51.130;13.658;2023-07-13T14:19:54;99183.16;;;25.60;34.79
76732;BME280;65656;51.130;13.658;2023-07-13T14:23:58;99180.22;;;29.60;28.98
76732;BME280;65656;51.130;13.658;2023-07-13T14:27:59;99181.16;;;30.83;26.45
76732;BME280;65656;51.130;13.658;2023-07-13T14:32:01;99165.00;;;32.47;25.17
76732;BME280;65656;51.130;13.658;2023-07-13T14:36:07;99163.13;;;31.75;25.55
76732;BME280;65656;51.130;13.658;2023-07-13T14:40:22;99157.56;;;31.96;25.07
76732;BME280;65656;51.130;13.658;2023-07-13T14:44:27;99156.47;;;32.40;24.96
76732;BME280;65656;51.130;13.658;2023-07-13T14:48:29;99169.41;;;31.36;23.94
76732;BME280;65656;51.130;13.658;2023-07-13T14:52:30;99157.00;;;30.96;25.07
76732;BME280;65656;51.130;13.658;2023-07-13T14:56:33;99172.19;;;30.74;25.63
76732;BME280;65656;51.130;13.658;2023-07-13T15:00:35;99166.16;;;31.30;24.02
76732;BME280;65656;51.130;13.658;2023-07-13T15:04:36;99162.56;;;30.82;25.54
76732;BME280;65656;51.130;13.658;2023-07-13T15:08:38;99163.91;;;29.20;27.43
76732;BME280;65656;51.130;13.658;2023-07-13T15:12:41;99167.84;;;29.72;26.13
76732;BME280;65656;51.130;13.658;2023-07-13T15:16:49;99161.16;;;30.65;24.32
76732;BME280;65656;51.130;13.658;2023-07-13T15:20:51;99157.38;;;31.53;23.78
76732;BME280;65656;51.130;13.658;2023-07-13T15:24:53;99168.84;;;31.82;22.57
76732;BME280;65656;51.130;13.658;2023-07-13T15:28:57;99165.44;;;31.51;22.33
76732;BME280;65656;51.130;13.658;2023-07-13T15:33:05;99171.59;;;30.13;23.74
76732;BME280;65656;51.130;13.658;2023-07-13T15:37:13;99165.41;;;30.41;22.96
76732;BME280;65656;51.130;13.658;2023-07-13T15:41:18;99162.91;;;32.30;21.86
76732;BME280;65656;51.130;13.658;2023-07-13T15:45:23;99173.03;;;30.00;23.96
76732;BME280;65656;51.130;13.658;2023-07-13T15:49:25;99163.88;;;29.77;24.59
76732;BME280;65656;51.130;13.658;2023-07-13T15:53:31;99165.19;;;31.09;23.08
76732;BME280;65656;51.130;13.658;2023-07-13T15:57:33;99169.75;;;32.07;21.84
76732;BME280;65656;51.130;13.658;2023-07-13T16:01:36;99172.19;;;32.12;21.13
76732;BME280;65656;51.130;13.658;2023-07-13T16:05:38;99172.16;;;30.70;23.14
76732;BME280;65656;51.130;13.658;2023-07-13T16:09:40;99173.84;;;30.75;22.74
76732;BME280;65656;51.130;13.658;2023-07-13T16:13:42;99178.97;;;30.25;22.84
76732;BME280;65656;51.130;13.658;2023-07-13T16:17:46;99183.31;;;30.56;22.82
76732;BME280;65656;51.130;13.658;2023-07-13T16:21:49;99178.47;;;31.67;22.27
76732;BME280;65656;51.130;13.658;2023-07-13T16:25:52;99189.25;;;31.43;22.33
76732;BME280;65656;51.130;13.658;2023-07-13T16:29:53;99195.81;;;30.14;23.38
76732;BME280;65656;51.130;13.658;2023-07-13T16:33:56;99195.59;;;28.87;25.11
76732;BME280;65656;51.130;13.658;2023-07-13T16:37:58;99192.34;;;29.34;24.18
76732;BME280;65656;51.130;13.658;2023-07-13T16:42:04;99190.50;;;29.19;25.08
76732;BME280;65656;51.130;13.658;2023-07-13T16:46:09;99207.19;;;27.24;26.48
76732;BME280;65656;51.130;13.658;2023-07-13T16:50:17;99203.34;;;27.12;27.64
76732;BME280;65656;51.130;13.658;2023-07-13T16:54:21;99203.34;;;26.49;28.46
76732;BME280;65656;51.130;13.658;2023-07-13T16:58:23;99209.19;;;26.28;28.87
76732;BME280;65656;51.130;13.658;2023-07-13T17:02:31;99205.38;;;25.52;29.05
76732;BME280;65656;51.130;13.658;2023-07-13T17:06:35;99210.94;;;25.00;30.38
76732;BME280;65656;51.130;13.658;2023-07-13T17:10:36;99233.63;;;25.07;30.52
76732;BME280;65656;51.130;13.658;2023-07-13T17:14:38;99224.09;;;25.61;29.72
76732;BME280;65656;51.130;13.658;2023-07-13T17:18:39;99218.09;;;26.02;29.95
76732;BME280;65656;51.130;13.658;2023-07-13T17:22:42;99232.63;;;26.48;29.27
76732;BME280;65656;51.130;13.658;2023-07-13T17:26:45;99225.47;;;26.66;29.57
76732;BME280;65656;51.130;13.658;2023-07-13T17:30:49;99222.50;;;26.16;28.70
76732;BME280;65656;51.130;13.658;2023-07-13T17:34:50;99225.41;;;26.35;28.98
76732;BME280;65656;51.130;13.658;2023-07-13T17:38:53;99224.84;;;26.89;28.39
76732;BME280;65656;51.130;13.658;2023-07-13T17:42:55;99225.41;;;26.35;30.68
76732;BME280;65656;51.130;13.658;2023-07-13T17:46:57;99236.28;;;25.40;30.84
76732;BME280;65656;51.130;13.658;2023-07-13T17:50:59;99237.91;;;24.80;31.61
76732;BME280;65656;51.130;13.658;2023-07-13T17:55:08;99242.19;;;24.20;32.85
76732;BME280;65656;51.130;13.658;2023-07-13T17:59:10;99251.47;;;23.79;33.94
76732;BME280;65656;51.130;13.658;2023-07-13T18:03:14;99251.75;;;23.65;33.25
76732;BME280;65656;51.130;13.658;2023-07-13T18:07:16;99251.63;;;23.61;33.19
76732;BME280;65656;51.130;13.658;2023-07-13T18:11:19;99251.56;;;23.41;33.19
76732;BME280;65656;51.130;13.658;2023-07-13T18:15:23;99260.41;;;23.22;34.15
76732;BME280;65656;51.130;13.658;2023-07-13T18:19:30;99261.50;;;23.00;34.76
76732;BME280;65656;51.130;13.658;2023-07-13T18:23:32;99265.66;;;22.94;35.31
76732;BME280;65656;51.130;13.658;2023-07-13T18:27:35;99254.53;;;22.76;35.26
76732;BME280;65656;51.130;13.658;2023-07-13T18:31:36;99266.41;;;22.56;35.87
76732;BME280;65656;51.130;13.658;2023-07-13T18:35:38;99269.09;;;22.44;35.91
76732;BME280;65656;51.130;13.658;2023-07-13T18:39:40;99270.09;;;22.31;36.16
76732;BME280;65656;51.130;13.658;2023-07-13T18:43:43;99269.16;;;22.09;36.99
76732;BME280;65656;51.130;13.658;2023-07-13T18:47:56;99282.09;;;22.05;36.85
76732;BME280;65656;51.130;13.658;2023-07-13T18:51:57;99285.53;;;22.02;36.79
76732;BME280;65656;51.130;13.658;2023-07-13T18:55:59;99273.72;;;21.70;37.68
76732;BME280;65656;51.130;13.658;2023-07-13T19:00:02;99288.66;;;21.49;38.37
76732;BME280;65656;51.130;13.658;2023-07-13T19:04:23;99298.78;;;21.36;38.75
76732;BME280;65656;51.130;13.658;2023-07-13T19:08:26;99302.13;;;21.15;39.38
76732;BME280;65656;51.130;13.658;2023-07-13T19:12:29;99310.44;;;20.98;39.73
76732;BME280;65656;51.130;13.658;2023-07-13T19:16:33;99314.09;;;20.76;40.34
76732;BME280;65656;51.130;13.658;2023-07-13T19:20:34;99308.53;;;20.45;40.92
76732;BME280;65656;51.130;13.658;2023-07-13T19:24:36;99330.53;;;20.33;42.04
76732;BME280;65656;51.130;13.658;2023-07-13T19:28:38;99328.31;;;20.21;42.30
76732;BME280;65656;51.130;13.658;2023-07-13T19:32:43;99342.91;;;20.27;42.27
76732;BME280;65656;51.130;13.658;2023-07-13T19:36:45;99342.53;;;20.20;42.74
76732;BME280;65656;51.130;13.658;2023-07-13T19:40:47;99344.41;;;19.88;44.89
76732;BME280;65656;51.130;13.658;2023-07-13T19:44:50;99363.50;;;19.54;46.28
76732;BME280;65656;51.130;13.658;2023-07-13T19:48:53;99363.31;;;19.23;46.87
76732;BME280;65656;51.130;13.658;2023-07-13T19:52:55;99365.16;;;19.00;47.02
76732;BME280;65656;51.130;13.658;2023-07-13T19:56:56;99361.03;;;18.83;47.60
76732;BME280;65656;51.130;13.658;2023-07-13T20:00:58;99370.25;;;18.79;47.28
76732;BME280;65656;51.130;13.658;2023-07-13T20:05:00;99372.53;;;18.90;47.41
76732;BME280;65656;51.130;13.658;2023-07-13T20:09:13;99378.69;;;18.87;47.58
76732;BME280;65656;51.130;13.658;2023-07-13T20:13:28;99373.16;;;18.87;47.55
76732;BME280;65656;51.130;13.658;2023-07-13T20:17:31;99383.81;;;18.80;48.32
76732;BME280;65656;51.130;13.658;2023-07-13T20:21:35;99386.91;;;18.79;48.29
76732;BME280;65656;51.130;13.658;2023-07-13T20:25:37;99385.88;;;18.88;48.01
76732;BME280;65656;51.130;13.658;2023-07-13T20:29:38;99387.78;;;19.07;47.04
76732;BME280;65656;51.130;13.658;2023-07-13T20:33:40;99394.97;;;19.08;47.50
76732;BME280;65656;51.130;13.658;2023-07-13T20:37:43;99399.91;;;19.11;46.88
76732;BME280;65656;51.130;13.658;2023-07-13T20:41:44;99403.41;;;19.03;47.90
76732;BME280;65656;51.130;13.658;2023-07-13T20:45:55;99407.63;;;19.14;47.35
76732;BME280;65656;51.130;13.658;2023-07-13T20:49:57;99420.69;;;19.13;47.41
76732;BME280;65656;51.130;13.658;2023-07-13T20:54:01;99416.84;;;18.96;47.98
76732;BME280;65656;51.130;13.658;2023-07-13T20:58:02;99419.81;;;18.85;48.83
76732;BME280;65656;51.130;13.658;2023-07-13T21:02:18;99430.31;;;18.88;49.37
76732;BME280;65656;51.130;13.658;2023-07-13T21:06:25;99453.81;;;18.58;50.90
76732;BME280;65656;51.130;13.658;2023-07-13T21:10:30;99458.34;;;18.54;51.29
76732;BME280;65656;51.130;13.658;2023-07-13T21:14:32;99458.72;;;18.48;52.17